METAR stanice u blizini

 

LYBE - Beograd / Surčin, Srbija
Ažurirano: 27/11/2020 03:30
Light drizzle, Mist, Oblačno
Light drizzle, Mist, Oblačno
 Pravac vetra varies
Vetar: varies 2 km/h
Temperatura: 0°C
Tačka rose: 0°C
Vlažnost: 100%
Pritisak: 1025 hPa
Pregled: Light drizzle, Mist
Oblaci: Oblačno
Vidljivost: 3 km
Cloud details: Oblačno 61 m
2020/11/27 02:30 LYBE 270230Z VRB01KT 3000 -DZ BR OVC002 00/00 Q1025 NOSIG
LYBT - Beograd / Batajnica, Srbija
Ažurirano: 27/11/2020 03:30
Mist, Oblačno
Mist, Oblačno
 Pravac vetra I
Vetar: I 6 km/h
Temperatura: 1°C
Tačka rose: 1°C
Vlažnost: 100%
Pritisak: 1025 hPa
Pregled: Mist
Oblaci: Oblačno
Vidljivost: 5 km
Cloud details: Oblačno 122 m
2020/11/27 02:30 LYBT 270230Z 10003KT 5000 BR OVC004 01/01 Q1025 NOSIG
LYVR - Vršac, Srbija
Ažurirano: 27/11/2020 03:30
Oblačno
Oblačno
 Pravac vetra varies
Vetar: varies 4 km/h
Temperatura: -1°C
Tačka rose: -1°C
Vlažnost: 100%
Pritisak: 1025 hPa
Oblaci: Oblačno
Vidljivost: 6 km
Cloud details: Oblačno 61 m
2020/11/27 02:30 LYVR 270230Z AUTO VRB02KT 6000 OVC002/// M01/M01 Q1025
 
LYKV - Lađevci, Srbija
Ažurirano: 27/11/2020 03:30
Freezing fog, Oblačno
Freezing fog, Oblačno
 Pravac vetra JI
Vetar: JI 4 km/h
Temperatura: 0°C
Tačka rose: 0°C
Vlažnost: 100%
Pritisak: 1024 hPa
Pregled: Freezing Fog
Oblaci: Oblačno
Vidljivost: 0 km
Cloud details: Oblačno 61 m
2020/11/27 02:30 LYKV 270230Z 13002KT 0200 R31/1500N R13/1000D FZFG VV002 M00/M00 Q1024 NOSIG
LYNI - Niš, Srbija
Ažurirano: 27/11/2020 03:30
Freezing drizzle, Freezing, Magla, Oblačno
Freezing drizzle, Freezing, Magla, Oblačno
 Pravac vetra varies
Vetar: varies 4 km/h
Temperatura: -2°C
Tačka rose: -3°C
Vlažnost: 93%
Pritisak: 1024 hPa
Pregled: Freezing drizzle, Freezing, Magla
Oblaci: Oblačno
Vidljivost: 1 km
Cloud details: Oblačno 61 m
2020/11/27 02:30 LYNI 270230Z VRB02KT 0500 R29/0650U R11/0600N FZDZ FZFG OVC002 M02/M03 Q1024 NOSIG
BKPR - Priština, Srbija
Ažurirano: 27/11/2020 03:00
Mostly Cloudy
Mostly Cloudy
 Pravac vetra calm
Vetar: Tišina
Temperatura: -7°C
Tačka rose: -9°C
Vlažnost: 86%
Pritisak: 1024 hPa
Oblaci: Mostly Cloudy
Vidljivost: 0 km
Cloud details: Mostly Cloudy 122 m
2020/11/27 02:00 BKPR 270200Z 00000KT 0100 R17/0225 BKN004 M07/M09 Q1024 NOSIG RMK 17010095
 
LHPP - Pecs / Pogany, Hungary
Ažurirano: 26/11/2020 18:45
NOT Current
Mist, Oblačno
Mist, Oblačno
 Pravac vetra S
Vetar: S 2 km/h
Temperatura: 2°C
Tačka rose: 1°C
Vlažnost: 93%
Pritisak: 1025 hPa
Pregled: Mist
Oblaci: Oblačno
Vidljivost: 3 km
Cloud details: Oblačno 305 m
2020/11/26 17:45 LHPP 261745Z 01001KT 3000 BR OVC010 02/01 Q1025
LHUD - Szeged, Hungary
Ažurirano: 04/07/2019 01:45
NOT Current
Vedro
Vedro
 Pravac vetra S
Vetar: S 7 km/h
Temperatura: 18°C
Tačka rose: 13°C
Vlažnost: 73%
Pritisak: 1019 hPa
Pregled: Vedro
Vidljivost: greater than 10 km
2019/07/03 23:45 LHUD 032345Z 35004KT CAVOK 18/13 Q1019
LRTR - Timisoara, Romania
Ažurirano: 27/11/2020 03:30
Mist, Pretežno oblačno
Mist, Pretežno oblačno
 Pravac vetra I
Vetar: I 6 km/h
Temperatura: 0°C
Tačka rose: 0°C
Vlažnost: 100%
Pritisak: 1025 hPa
Pregled: Mist
Oblaci: Mostly Cloudy
Vidljivost: 4 km
Cloud details: Oblačno 61 m
Mostly Cloudy 91 m
2020/11/27 02:30 LRTR 270230Z 09003KT 3500 BR OVC002 BKN003 00/00 Q1025
 
LRCV - Craiova, Romania
Ažurirano: 27/11/2020 03:30
Freezing fog, Delimično oblačno
Freezing fog, Delimično oblačno
 Pravac vetra Z
Vetar: Z 9 km/h
Temperatura: -6°C
Osećaj hladnoće: -11°C
Tačka rose: -7°C
Vlažnost: 93%
Pritisak: 1022 hPa
Pregled: Freezing Fog
Oblaci: Partly Cloudy
Vidljivost: 1 km
2020/11/27 02:30 LRCV 270230Z 27005KT 0800 R27/P2000 FZFG NSC M06/M07 Q1022
LBSF - Sofia, Bulgaria
Ažurirano: 27/11/2020 03:30
Freezing fog, Oblačno
Freezing fog, Oblačno
 Pravac vetra JI
Vetar: JI 4 km/h
Temperatura: -4°C
Tačka rose: -5°C
Vlažnost: 93%
Pritisak: 1024 hPa
Pregled: Freezing Fog
Oblaci: Oblačno
Vidljivost: 0 km
Cloud details: Oblačno 30 m
2020/11/27 02:30 LBSF 270230Z 13002KT 0250 R27/0275N FZFG VV001 M04/M05 Q1024 NOSIG
LWSK - Skoplje, Makedonija
Ažurirano: 27/11/2020 03:30
Mist, Delimično oblačno
Mist, Delimično oblačno
 Pravac vetra calm
Vetar: Tišina
Temperatura: -6°C
Tačka rose: -7°C
Vlažnost: 93%
Pritisak: 1025 hPa
Pregled: Mist
Oblaci: Partly Cloudy
Vidljivost: 5 km
2020/11/27 02:30 LWSK 270230Z 00000KT 5000 BR NSC M06/M07 Q1025 NOSIG
 
LYPG - Podgorica, Crna Gora
Ažurirano: 27/11/2020 03:30
Vedro
Vedro
 Pravac vetra SSI
Vetar: SSI 6 km/h
Temperatura: 1°C
Tačka rose: -3°C
Vlažnost: 75%
Pritisak: 1023 hPa
Pregled: Vedro
Vidljivost: greater than 10 km
2020/11/27 02:30 LYPG 270230Z 02003KT CAVOK 01/M03 Q1023 NOSIG
LQSA - Sarajevo, Bosna i Hercegovina
Ažurirano: 27/11/2020 03:00
Freezing fog, Pretežno oblačno
Freezing fog, Pretežno oblačno
 Pravac vetra varies
Vetar: varies 4 km/h
Temperatura: -5°C
Tačka rose: -5°C
Vlažnost: 100%
Pritisak: 1023 hPa
Pregled: Freezing Fog
Oblaci: Mostly Cloudy
Vidljivost: 0 km
Cloud details: Mostly Cloudy 61 m
2020/11/27 02:00 LQSA 270200Z VRB02KT 0300 R11/0200N FZFG BKN002 M05/M05 Q1023
LDOS - Osijek, Hrvatksa
Ažurirano: 27/11/2020 03:30
Mist, Oblačno
Mist, Oblačno
 Pravac vetra varies
Vetar: varies 4 km/h
Temperatura: 2°C
Tačka rose: 2°C
Vlažnost: 100%
Pritisak: 1025 hPa
Pregled: Mist
Oblaci: Oblačno
Vidljivost: 2 km
Cloud details: Oblačno 61 m
2020/11/27 02:30 LDOS 270230Z VRB02KT 1700 BR OVC002 02/02 Q1025